createdAt,value
2018-11-29T00:00:07.744Z,2.64
2018-11-29T00:01:07.743Z,2.69
2018-11-29T00:02:07.751Z,2.74
2018-11-29T00:03:07.764Z,2.75
2018-11-29T00:04:07.770Z,2.64
2018-11-29T00:05:07.785Z,2.67
2018-11-29T00:06:07.787Z,2.78
2018-11-29T00:07:07.796Z,2.79
2018-11-29T00:08:07.806Z,2.74
2018-11-29T00:09:07.812Z,2.78
2018-11-29T00:10:07.820Z,2.75
2018-11-29T00:11:07.829Z,2.78
2018-11-29T00:12:07.842Z,2.78
2018-11-29T00:13:07.848Z,2.79
2018-11-29T00:14:07.857Z,2.87
2018-11-29T00:15:07.865Z,2.93
2018-11-29T00:16:07.875Z,2.87
2018-11-29T00:17:07.884Z,2.84
2018-11-29T00:18:07.898Z,2.89
2018-11-29T00:19:07.905Z,2.89
2018-11-29T00:20:07.913Z,2.93
2018-11-29T00:21:07.920Z,2.89
2018-11-29T00:22:07.929Z,2.95
2018-11-29T00:23:07.938Z,2.97
2018-11-29T00:24:07.945Z,2.99
2018-11-29T00:25:07.954Z,2.93
2018-11-29T00:26:07.962Z,2.93
2018-11-29T00:27:07.970Z,2.93
2018-11-29T00:28:07.982Z,2.89
2018-11-29T00:29:07.992Z,2.89
2018-11-29T00:30:07.997Z,2.90
2018-11-29T00:31:08.006Z,2.93
2018-11-29T00:32:08.014Z,2.90
2018-11-29T00:33:08.027Z,2.93
2018-11-29T00:34:08.031Z,2.93
2018-11-29T00:35:08.041Z,2.93
2018-11-29T00:36:08.053Z,2.95
2018-11-29T00:37:08.060Z,2.99
2018-11-29T00:38:08.068Z,3.05
2018-11-29T00:39:08.076Z,3.02
2018-11-29T00:40:08.085Z,3.03
2018-11-29T00:41:08.093Z,3.02
2018-11-29T00:42:08.101Z,3.03
2018-11-29T00:43:08.111Z,3.06
2018-11-29T00:44:08.122Z,3.05
2018-11-29T00:45:08.128Z,3.00
2018-11-29T00:46:08.137Z,3.03
2018-11-29T00:47:08.145Z,3.06
2018-11-29T00:48:08.154Z,3.10
2018-11-29T00:49:08.162Z,3.02
2018-11-29T00:50:08.174Z,3.11
2018-11-29T00:51:08.180Z,3.08
2018-11-29T00:52:08.189Z,3.08
2018-11-29T00:53:08.197Z,3.13
2018-11-29T00:54:08.206Z,3.14
2018-11-29T00:55:08.215Z,3.11
2018-11-29T00:56:08.225Z,3.10
2018-11-29T00:57:08.234Z,3.10
2018-11-29T00:58:08.240Z,3.08
2018-11-29T00:59:08.251Z,3.13
2018-11-29T01:00:08.262Z,3.20
2018-11-29T01:01:08.266Z,3.06
2018-11-29T01:02:08.274Z,3.18
2018-11-29T01:03:08.286Z,3.24
2018-11-29T01:04:08.295Z,3.28
2018-11-29T01:05:08.302Z,3.24
2018-11-29T01:06:08.313Z,3.18
2018-11-29T01:07:08.323Z,3.20
2018-11-29T01:08:08.330Z,3.28
2018-11-29T01:09:08.337Z,3.21
2018-11-29T01:10:08.348Z,3.28
2018-11-29T01:11:08.355Z,3.20
2018-11-29T01:12:08.366Z,3.20
2018-11-29T01:13:08.372Z,3.21
2018-11-29T01:14:08.383Z,3.36
2018-11-29T01:15:08.390Z,3.33
2018-11-29T01:16:08.402Z,3.21
2018-11-29T01:17:08.408Z,3.20
2018-11-29T01:18:08.420Z,3.24
2018-11-29T01:19:08.440Z,3.28
2018-11-29T01:20:08.438Z,3.29
2018-11-29T01:21:08.445Z,3.33
2018-11-29T01:22:08.455Z,3.26
2018-11-29T01:23:08.464Z,3.39
2018-11-29T01:24:08.476Z,3.33
2018-11-29T01:25:08.483Z,3.36
2018-11-29T01:26:08.492Z,3.40
2018-11-29T01:27:08.501Z,3.39
2018-11-29T01:28:08.510Z,3.32
2018-11-29T01:29:08.519Z,3.39
2018-11-29T01:30:08.526Z,3.36
2018-11-29T01:31:08.536Z,3.32
2018-11-29T01:32:08.545Z,3.39
2018-11-29T01:33:08.556Z,3.35
2018-11-29T01:34:08.564Z,3.36
2018-11-29T01:35:08.572Z,3.35
2018-11-29T01:36:08.586Z,3.36
2018-11-29T01:37:08.591Z,3.35
2018-11-29T01:38:08.601Z,3.35
2018-11-29T01:39:08.611Z,3.26
2018-11-29T01:40:08.618Z,3.29
2018-11-29T01:41:08.627Z,3.42
2018-11-29T01:42:08.644Z,3.50
2018-11-29T01:43:08.648Z,3.52
2018-11-29T01:44:08.657Z,3.60
2018-11-29T01:45:08.667Z,3.52
2018-11-29T01:46:08.673Z,3.55
2018-11-29T01:47:08.684Z,3.66
2018-11-29T01:48:08.700Z,3.78
2018-11-29T01:49:08.702Z,3.79
2018-11-29T01:50:08.710Z,3.75
2018-11-29T01:51:08.720Z,3.75
2018-11-29T01:52:08.728Z,3.73
2018-11-29T01:53:08.738Z,3.62
2018-11-29T01:54:08.745Z,3.66
2018-11-29T01:55:08.757Z,3.69
2018-11-29T01:56:08.767Z,3.68
2018-11-29T01:57:08.774Z,3.72
2018-11-29T01:58:08.784Z,3.70
2018-11-29T01:59:08.794Z,3.69
2018-11-29T02:00:08.802Z,3.78
2018-11-29T02:01:08.810Z,3.78
2018-11-29T02:02:08.820Z,3.80
2018-11-29T02:03:08.829Z,3.83
2018-11-29T02:04:08.838Z,3.83
2018-11-29T02:05:08.851Z,3.79
2018-11-29T02:06:08.858Z,3.87
2018-11-29T02:07:08.864Z,3.83
2018-11-29T02:08:08.877Z,3.75
2018-11-29T02:09:08.884Z,3.83
2018-11-29T02:10:08.894Z,3.69
2018-11-29T02:11:08.904Z,3.73
2018-11-29T02:12:08.917Z,3.78
2018-11-29T02:13:08.925Z,3.72
2018-11-29T02:14:08.931Z,3.75
2018-11-29T02:15:08.941Z,3.70
2018-11-29T02:16:08.950Z,3.72
2018-11-29T02:17:08.959Z,3.70
2018-11-29T02:18:09.008Z,3.75
2018-11-29T02:19:09.015Z,3.65
2018-11-29T02:20:08.987Z,3.69
2018-11-29T02:21:08.993Z,3.66
2018-11-29T02:22:09.004Z,3.69
2018-11-29T02:23:09.015Z,3.68
2018-11-29T02:24:09.020Z,3.70
2018-11-29T02:25:09.030Z,3.68
2018-11-29T02:26:09.040Z,3.66
2018-11-29T02:27:09.054Z,3.61
2018-11-29T02:28:09.060Z,3.58
2018-11-29T02:29:09.066Z,3.66
2018-11-29T02:30:09.077Z,3.60
2018-11-29T02:31:09.085Z,3.65
2018-11-29T02:32:09.095Z,3.62
2018-11-29T02:33:09.121Z,3.61
2018-11-29T02:34:09.118Z,3.57
2018-11-29T02:35:09.124Z,3.50
2018-11-29T02:36:09.138Z,3.52
2018-11-29T02:37:09.142Z,3.48
2018-11-29T02:38:09.149Z,3.47
2018-11-29T02:39:09.159Z,3.45
2018-11-29T02:40:09.168Z,3.32
2018-11-29T02:41:09.176Z,3.31
2018-11-29T02:42:09.192Z,3.35
2018-11-29T02:43:09.194Z,3.39
2018-11-29T02:44:09.203Z,3.39
2018-11-29T02:45:09.214Z,3.32
2018-11-29T02:46:09.223Z,3.35
2018-11-29T02:47:09.234Z,3.35
2018-11-29T02:48:09.244Z,3.33
2018-11-29T02:49:09.252Z,3.36
2018-11-29T02:50:09.257Z,3.36
2018-11-29T02:51:09.268Z,3.35
2018-11-29T02:52:09.277Z,3.39
2018-11-29T02:53:09.293Z,3.39
2018-11-29T02:54:09.301Z,3.35
2018-11-29T02:55:09.304Z,3.35
2018-11-29T02:56:09.315Z,3.39
2018-11-29T02:57:09.325Z,3.39
2018-11-29T02:58:09.334Z,3.42
2018-11-29T02:59:09.348Z,3.36
2018-11-29T03:00:09.355Z,3.39
2018-11-29T03:01:09.360Z,3.42
2018-11-29T03:02:09.369Z,3.33
2018-11-29T03:03:09.383Z,3.43
2018-11-29T03:04:09.389Z,3.36
2018-11-29T03:05:09.397Z,3.40
2018-11-29T03:06:09.409Z,3.42
2018-11-29T03:07:09.414Z,3.42
2018-11-29T03:08:09.425Z,3.50
2018-11-29T03:09:09.432Z,3.48
2018-11-29T03:10:09.443Z,3.45
2018-11-29T03:11:09.453Z,3.50
2018-11-29T03:12:09.463Z,3.42
2018-11-29T03:13:09.471Z,3.55
2018-11-29T03:14:09.480Z,3.57
2018-11-29T03:15:09.488Z,3.58
2018-11-29T03:16:09.501Z,3.69
2018-11-29T03:17:09.507Z,3.58
2018-11-29T03:18:09.517Z,3.68
2018-11-29T03:19:09.528Z,3.75
2018-11-29T03:20:09.537Z,3.79
2018-11-29T03:21:09.545Z,3.80
2018-11-29T03:22:09.556Z,3.83
2018-11-29T03:23:09.566Z,3.86
2018-11-29T03:24:09.573Z,3.86
2018-11-29T03:25:09.582Z,3.91
2018-11-29T03:26:09.597Z,3.87
2018-11-29T03:27:09.601Z,3.84
2018-11-29T03:28:09.612Z,3.88
2018-11-29T03:29:09.618Z,3.91
2018-11-29T03:30:09.630Z,3.96
2018-11-29T03:31:09.641Z,3.91
2018-11-29T03:32:09.655Z,3.90
2018-11-29T03:33:09.667Z,3.96
2018-11-29T03:34:09.666Z,3.98
2018-11-29T03:35:09.679Z,3.94
2018-11-29T03:36:09.685Z,3.96
2018-11-29T03:37:09.694Z,3.93
2018-11-29T03:38:09.702Z,3.93
2018-11-29T03:39:09.712Z,3.91
2018-11-29T03:40:09.740Z,3.93
2018-11-29T03:41:09.730Z,3.91
2018-11-29T03:42:09.740Z,4.02
2018-11-29T03:43:09.755Z,4.02
2018-11-29T03:44:09.759Z,3.90
2018-11-29T03:45:09.771Z,3.97
2018-11-29T03:46:09.776Z,4.06
2018-11-29T03:47:09.787Z,3.96
2018-11-29T03:48:09.798Z,4.02
2018-11-29T03:49:09.807Z,4.00
2018-11-29T03:50:09.818Z,4.00
2018-11-29T03:51:09.824Z,3.96
2018-11-29T03:52:09.840Z,3.94
2018-11-29T03:53:09.849Z,3.96
2018-11-29T03:54:09.857Z,4.02
2018-11-29T03:55:09.864Z,3.98
2018-11-29T03:56:09.874Z,3.93
2018-11-29T03:57:09.882Z,4.02
2018-11-29T03:58:09.897Z,3.94
2018-11-29T03:59:09.905Z,3.98
2018-11-29T04:00:09.917Z,3.91
2018-11-29T04:01:09.926Z,3.94
2018-11-29T04:02:09.932Z,3.98
2018-11-29T04:03:09.948Z,3.94
2018-11-29T04:04:09.963Z,4.05
2018-11-29T04:05:09.964Z,4.02
2018-11-29T04:06:09.980Z,4.02
2018-11-29T04:07:09.981Z,3.97
2018-11-29T04:08:09.994Z,3.98
2018-11-29T04:09:09.997Z,4.02
2018-11-29T04:10:10.011Z,4.02
2018-11-29T04:11:10.021Z,3.98
2018-11-29T04:12:10.026Z,3.98
2018-11-29T04:13:10.037Z,3.93
2018-11-29T04:14:10.046Z,3.96
2018-11-29T04:15:10.054Z,3.96
2018-11-29T04:16:10.078Z,3.94
2018-11-29T04:17:10.074Z,3.94
2018-11-29T04:18:10.088Z,3.91
2018-11-29T04:19:10.094Z,3.94
2018-11-29T04:20:10.106Z,3.98
2018-11-29T04:21:10.112Z,4.02
2018-11-29T04:22:10.126Z,3.98
2018-11-29T04:23:10.134Z,3.91
2018-11-29T04:24:10.142Z,3.94
2018-11-29T04:25:10.164Z,3.90
2018-11-29T04:26:10.160Z,3.88
2018-11-29T04:27:10.171Z,3.97
2018-11-29T04:28:10.179Z,3.98
2018-11-29T04:29:10.189Z,4.00
2018-11-29T04:30:10.199Z,3.94
2018-11-29T04:31:10.209Z,3.91
2018-11-29T04:32:10.217Z,3.91
2018-11-29T04:33:10.235Z,3.88
2018-11-29T04:34:10.239Z,3.86
2018-11-29T04:35:10.245Z,3.79
2018-11-29T04:36:10.260Z,3.80
2018-11-29T04:37:10.265Z,3.73
2018-11-29T04:38:10.276Z,3.75
2018-11-29T04:39:10.286Z,3.79
2018-11-29T04:40:10.296Z,3.83
2018-11-29T04:41:10.306Z,3.76
2018-11-29T04:42:10.313Z,3.78
2018-11-29T04:43:10.328Z,3.70
2018-11-29T04:44:10.335Z,3.66
2018-11-29T04:45:10.342Z,3.69
2018-11-29T04:46:10.389Z,3.66
2018-11-29T04:47:10.363Z,3.62
2018-11-29T04:48:10.372Z,3.66
2018-11-29T04:49:10.383Z,3.62
2018-11-29T04:50:10.398Z,3.69
2018-11-29T04:51:10.400Z,3.69
2018-11-29T04:52:10.413Z,3.69
2018-11-29T04:53:10.418Z,3.68
2018-11-29T04:54:10.427Z,3.72
2018-11-29T04:55:10.439Z,3.68
2018-11-29T04:56:10.449Z,3.69
2018-11-29T04:57:10.463Z,3.68
2018-11-29T04:58:10.464Z,3.60
2018-11-29T04:59:10.479Z,3.58
2018-11-29T05:00:10.489Z,3.70
2018-11-29T05:01:10.492Z,3.58
2018-11-29T05:02:11.938Z,3.69
2018-11-29T05:03:10.513Z,3.70
2018-11-29T05:04:10.524Z,3.61
2018-11-29T05:05:10.531Z,3.61
2018-11-29T05:06:10.539Z,3.73
2018-11-29T05:07:10.550Z,3.69
2018-11-29T05:08:10.559Z,3.65
2018-11-29T05:09:10.566Z,3.78
2018-11-29T05:10:10.585Z,3.70
2018-11-29T05:11:10.586Z,3.84
2018-11-29T05:12:10.596Z,3.93
2018-11-29T05:13:10.625Z,3.84
2018-11-29T05:14:10.617Z,3.87
2018-11-29T05:15:10.627Z,3.91
2018-11-29T05:16:10.632Z,3.88
2018-11-29T05:17:10.643Z,3.91
2018-11-29T05:18:10.654Z,3.93
2018-11-29T05:19:10.663Z,3.90
2018-11-29T05:20:10.675Z,3.88
2018-11-29T05:21:10.678Z,3.84
2018-11-29T05:22:10.688Z,3.86
2018-11-29T05:23:10.699Z,3.91
2018-11-29T05:24:10.711Z,3.79
2018-11-29T05:25:10.716Z,3.73
2018-11-29T05:26:10.727Z,3.72
2018-11-29T05:27:10.736Z,3.68
2018-11-29T05:28:10.745Z,3.65
2018-11-29T05:29:10.753Z,3.62
2018-11-29T05:30:10.771Z,3.65
2018-11-29T05:31:10.774Z,3.66
2018-11-29T05:32:10.784Z,3.66
2018-11-29T05:33:10.792Z,3.68
2018-11-29T05:34:10.802Z,3.61
2018-11-29T05:35:10.812Z,3.65
2018-11-29T05:36:10.821Z,3.69
2018-11-29T05:37:10.830Z,3.68
2018-11-29T05:38:10.839Z,3.61
2018-11-29T05:39:10.851Z,3.69
2018-11-29T05:40:10.863Z,3.70
2018-11-29T05:41:10.867Z,3.75
2018-11-29T05:42:10.876Z,3.69
2018-11-29T05:43:10.886Z,3.79
2018-11-29T05:44:10.897Z,3.76
2018-11-29T05:45:10.916Z,3.78
2018-11-29T05:46:10.917Z,3.75
2018-11-29T05:47:10.922Z,3.73
2018-11-29T05:48:10.941Z,3.75
2018-11-29T05:49:10.945Z,3.83
2018-11-29T05:50:10.954Z,3.78
2018-11-29T05:51:10.960Z,3.78
2018-11-29T05:52:10.971Z,3.73
2018-11-29T05:53:10.981Z,3.79
2018-11-29T05:54:10.991Z,3.84
2018-11-29T05:55:10.998Z,3.86
2018-11-29T05:56:11.013Z,3.83
2018-11-29T05:57:11.016Z,3.83
2018-11-29T05:58:11.027Z,3.88
2018-11-29T05:59:11.034Z,3.79
2018-11-29T06:00:11.047Z,3.86
2018-11-29T06:01:11.053Z,3.94
2018-11-29T06:02:11.065Z,3.90
2018-11-29T06:03:11.075Z,3.93
2018-11-29T06:04:11.083Z,3.98
2018-11-29T06:05:11.137Z,4.00
2018-11-29T06:06:11.103Z,3.94
2018-11-29T06:07:11.114Z,3.96
2018-11-29T06:08:11.120Z,4.05
2018-11-29T06:09:11.129Z,4.02
2018-11-29T06:10:11.138Z,4.04
2018-11-29T06:11:11.150Z,4.00
2018-11-29T06:12:11.157Z,3.98
2018-11-29T06:13:11.166Z,4.02
2018-11-29T06:14:11.176Z,3.96
2018-11-29T06:15:11.187Z,4.00
2018-11-29T06:16:11.200Z,4.04
2018-11-29T06:17:11.204Z,4.00
2018-11-29T06:18:11.213Z,4.08
2018-11-29T06:19:11.223Z,4.09
2018-11-29T06:20:11.244Z,4.09
2018-11-29T06:21:11.243Z,4.06
2018-11-29T06:22:11.253Z,4.04
2018-11-29T06:23:11.263Z,4.08
2018-11-29T06:24:13.541Z,4.08
2018-11-29T06:25:11.283Z,4.05
2018-11-29T06:26:11.289Z,4.11
2018-11-29T06:27:11.300Z,4.11
2018-11-29T06:28:11.310Z,4.15
2018-11-29T06:29:11.319Z,4.15
2018-11-29T06:30:11.329Z,4.09
2018-11-29T06:31:11.339Z,4.12
2018-11-29T06:32:11.347Z,4.06
2018-11-29T06:33:11.356Z,4.11
2018-11-29T06:34:11.366Z,4.08
2018-11-29T06:35:11.377Z,4.15
2018-11-29T06:36:11.386Z,4.05
2018-11-29T06:37:11.395Z,4.11
2018-11-29T06:38:11.404Z,4.09
2018-11-29T06:39:11.414Z,4.06
2018-11-29T06:40:11.424Z,4.05
2018-11-29T06:41:11.436Z,4.02
2018-11-29T06:42:11.442Z,4.06
2018-11-29T06:43:11.452Z,3.98
2018-11-29T06:44:11.462Z,4.00
2018-11-29T06:45:11.472Z,4.00
2018-11-29T06:46:11.482Z,4.00
2018-11-29T06:47:11.490Z,3.98
2018-11-29T06:48:11.500Z,3.97
2018-11-29T06:49:11.509Z,3.96
2018-11-29T06:50:11.524Z,4.02
2018-11-29T06:51:11.535Z,3.96
2018-11-29T06:52:11.539Z,3.98
2018-11-29T06:53:11.548Z,4.00
2018-11-29T06:54:11.557Z,4.02
2018-11-29T06:55:11.567Z,3.96
2018-11-29T06:56:11.576Z,3.98
2018-11-29T06:57:11.585Z,4.04
2018-11-29T06:58:11.594Z,4.06
2018-11-29T06:59:11.606Z,4.29
2018-11-29T07:00:11.614Z,4.20
2018-11-29T07:01:11.624Z,4.30
2018-11-29T07:02:11.632Z,4.24
2018-11-29T07:03:11.643Z,4.32
2018-11-29T07:04:11.651Z,4.37
2018-11-29T07:05:11.666Z,4.32
2018-11-29T07:06:11.670Z,4.37
2018-11-29T07:07:11.679Z,4.41
2018-11-29T07:08:11.692Z,4.36
2018-11-29T07:09:11.697Z,4.33
2018-11-29T07:10:11.706Z,4.45
2018-11-29T07:11:11.717Z,4.33
2018-11-29T07:12:11.729Z,4.36
2018-11-29T07:13:11.737Z,4.36
2018-11-29T07:14:11.745Z,4.34
2018-11-29T07:15:11.753Z,4.36
2018-11-29T07:16:11.765Z,4.42
2018-11-29T07:17:11.774Z,4.33
2018-11-29T07:18:11.783Z,4.29
2018-11-29T07:19:14.990Z,4.33
2018-11-29T07:20:11.802Z,4.32
2018-11-29T07:21:11.817Z,4.37
2018-11-29T07:22:11.821Z,4.32
2018-11-29T07:23:11.830Z,4.45
2018-11-29T07:24:11.839Z,4.33
2018-11-29T07:25:11.846Z,4.40
2018-11-29T07:26:11.859Z,4.45
2018-11-29T07:27:11.870Z,4.42
2018-11-29T07:28:11.878Z,4.44
2018-11-29T07:29:16.722Z,4.41
2018-11-29T07:30:11.899Z,4.40
2018-11-29T07:31:11.905Z,4.45
2018-11-29T07:32:11.916Z,4.42
2018-11-29T07:33:11.924Z,4.33
2018-11-29T07:34:11.936Z,4.34
2018-11-29T07:35:11.944Z,4.41
2018-11-29T07:36:11.963Z,4.42
2018-11-29T07:37:17.265Z,4.47
2018-11-29T07:38:11.972Z,4.48
2018-11-29T07:39:11.984Z,4.54
2018-11-29T07:40:11.992Z,4.51
2018-11-29T07:41:12.003Z,4.58
2018-11-29T07:42:12.012Z,4.52
2018-11-29T07:43:12.021Z,4.66
2018-11-29T07:44:12.030Z,4.62
2018-11-29T07:45:12.094Z,4.67
2018-11-29T07:46:12.048Z,4.70
2018-11-29T07:47:12.059Z,4.67
2018-11-29T07:48:12.071Z,4.65
2018-11-29T07:49:12.080Z,4.70
2018-11-29T07:50:12.089Z,4.70
2018-11-29T07:51:12.097Z,4.72
2018-11-29T07:52:12.112Z,4.69
2018-11-29T07:53:12.118Z,4.72
2018-11-29T07:54:12.128Z,4.78
2018-11-29T07:55:12.138Z,4.84
2018-11-29T07:56:12.148Z,4.82
2018-11-29T07:57:12.156Z,4.84
2018-11-29T07:58:12.169Z,4.84
2018-11-29T07:59:12.180Z,4.85
2018-11-29T08:00:12.191Z,4.82
2018-11-29T08:01:12.197Z,4.88
2018-11-29T08:02:12.208Z,4.85
2018-11-29T08:03:12.217Z,4.85
2018-11-29T08:04:12.230Z,4.84
2018-11-29T08:05:12.377Z,4.91
2018-11-29T08:06:12.247Z,4.99
2018-11-29T08:07:12.259Z,4.96
2018-11-29T08:08:12.269Z,5.00
2018-11-29T08:09:12.276Z,5.03
2018-11-29T08:10:12.288Z,5.04
2018-11-29T08:11:12.297Z,5.12
2018-11-29T08:12:12.310Z,5.12
2018-11-29T08:13:12.319Z,5.12
2018-11-29T08:14:12.330Z,5.28
2018-11-29T08:15:12.341Z,5.24
2018-11-29T08:16:12.349Z,5.22
2018-11-29T08:17:12.396Z,5.27
2018-11-29T08:18:12.371Z,5.39
2018-11-29T08:19:12.380Z,5.33
2018-11-29T08:20:12.393Z,5.38
2018-11-29T08:21:12.401Z,5.53
2018-11-29T08:22:12.410Z,5.48
2018-11-29T08:23:12.421Z,5.56
2018-11-29T08:24:12.434Z,5.60
2018-11-29T08:25:12.443Z,5.63
2018-11-29T08:26:12.456Z,5.65
2018-11-29T08:27:12.464Z,5.67
2018-11-29T08:28:12.477Z,5.79
2018-11-29T08:29:12.485Z,5.79
2018-11-29T08:30:12.497Z,5.90
2018-11-29T08:31:12.509Z,6.00
2018-11-29T08:32:12.517Z,6.03
2018-11-29T08:33:12.531Z,6.12
2018-11-29T08:34:12.539Z,6.09
2018-11-29T08:35:12.549Z,6.14
2018-11-29T08:36:12.560Z,6.18
2018-11-29T08:37:12.574Z,6.27
2018-11-29T08:38:12.581Z,6.21
2018-11-29T08:39:12.590Z,6.28
2018-11-29T08:40:12.612Z,6.30
2018-11-29T08:41:12.613Z,6.33
2018-11-29T08:42:12.623Z,6.37
2018-11-29T08:43:12.637Z,6.56
2018-11-29T08:44:12.647Z,6.59
2018-11-29T08:45:12.657Z,6.94
2018-11-29T08:46:12.668Z,6.94
2018-11-29T08:47:12.679Z,7.03
2018-11-29T08:48:12.688Z,7.05
2018-11-29T08:49:12.699Z,7.23
2018-11-29T08:50:12.720Z,7.15
2018-11-29T08:51:12.722Z,7.07
2018-11-29T08:52:12.734Z,7.21
2018-11-29T08:53:12.743Z,7.34
2018-11-29T08:54:12.759Z,7.27
2018-11-29T08:55:12.766Z,7.43
2018-11-29T08:56:12.778Z,7.58
2018-11-29T08:57:12.789Z,7.55
2018-11-29T08:58:12.799Z,7.67
2018-11-29T08:59:12.813Z,7.71
2018-11-29T09:00:12.820Z,7.63
2018-11-29T09:01:12.833Z,7.86
2018-11-29T09:02:12.846Z,8.02
2018-11-29T09:03:12.854Z,8.20
2018-11-29T09:04:12.865Z,8.34
2018-11-29T09:05:12.877Z,8.30
2018-11-29T09:06:12.892Z,8.38
2018-11-29T09:07:12.906Z,8.45
2018-11-29T09:08:12.919Z,8.47
2018-11-29T09:09:12.926Z,8.45
2018-11-29T09:10:12.939Z,8.38
2018-11-29T09:11:12.950Z,8.38
2018-11-29T09:12:12.957Z,8.38
2018-11-29T09:13:13.070Z,8.29
2018-11-29T09:14:12.986Z,8.34
2018-11-29T09:15:12.992Z,8.19
2018-11-29T09:16:13.005Z,8.01
2018-11-29T09:17:13.023Z,7.98
2018-11-29T09:18:13.028Z,7.82
2018-11-29T09:19:13.038Z,7.75
2018-11-29T09:20:13.048Z,7.79
2018-11-29T09:21:13.063Z,7.77
2018-11-29T09:22:13.073Z,7.80
2018-11-29T09:23:13.146Z,7.93
2018-11-29T09:24:13.097Z,8.08
2018-11-29T09:25:13.109Z,7.98
2018-11-29T09:26:13.122Z,7.97
2018-11-29T09:27:13.182Z,8.12
2018-11-29T09:28:13.146Z,8.15
2018-11-29T09:29:13.864Z,8.18
2018-11-29T09:30:13.167Z,8.25
2018-11-29T09:31:13.179Z,8.28
2018-11-29T09:32:13.192Z,8.29
2018-11-29T09:33:13.203Z,8.19
2018-11-29T09:34:13.214Z,8.18
2018-11-29T09:35:13.231Z,8.33
2018-11-29T09:36:13.238Z,8.18
2018-11-29T09:37:13.249Z,8.36
2018-11-29T09:38:13.263Z,8.30
2018-11-29T09:39:13.278Z,8.48
2018-11-29T09:40:13.288Z,8.55
2018-11-29T09:41:13.298Z,8.28
2018-11-29T09:42:13.311Z,8.28
2018-11-29T09:43:13.322Z,8.41
2018-11-29T09:44:13.337Z,8.36
2018-11-29T09:45:13.348Z,8.34
2018-11-29T09:46:13.358Z,8.29
2018-11-29T09:47:13.369Z,8.26
2018-11-29T09:48:13.388Z,8.22
2018-11-29T09:49:13.394Z,8.04
2018-11-29T09:50:13.406Z,7.98
2018-11-29T09:51:13.420Z,8.02
2018-11-29T09:52:13.433Z,8.05
2018-11-29T09:53:13.443Z,7.98
2018-11-29T09:54:13.456Z,8.12
2018-11-29T09:55:13.468Z,8.15
2018-11-29T09:56:13.482Z,8.29
2018-11-29T09:57:13.492Z,8.29
2018-11-29T09:58:13.506Z,8.33
2018-11-29T09:59:13.518Z,8.34
2018-11-29T10:00:13.532Z,8.29
2018-11-29T10:01:13.545Z,8.16
2018-11-29T10:02:13.557Z,8.05
2018-11-29T10:03:13.572Z,8.00
2018-11-29T10:04:13.580Z,7.98
2018-11-29T10:05:13.594Z,7.82
2018-11-29T10:06:13.602Z,7.75
2018-11-29T10:07:13.616Z,7.77
2018-11-29T10:08:13.630Z,7.89
2018-11-29T10:09:13.641Z,7.90
2018-11-29T10:10:13.696Z,7.93
2018-11-29T10:11:13.667Z,7.97
2018-11-29T10:12:13.679Z,8.04
2018-11-29T10:13:13.692Z,8.00
2018-11-29T10:14:13.788Z,7.95
2018-11-29T10:15:13.717Z,8.04
2018-11-29T10:16:13.728Z,7.95
2018-11-29T10:17:13.743Z,7.92
2018-11-29T10:18:13.751Z,7.93
2018-11-29T10:19:13.764Z,7.95
2018-11-29T10:20:13.779Z,7.80
2018-11-29T10:21:13.791Z,7.82
2018-11-29T10:22:13.952Z,7.77
2018-11-29T10:23:13.813Z,7.72
2018-11-29T10:24:13.828Z,7.58
2018-11-29T10:25:13.838Z,7.68
2018-11-29T10:26:13.855Z,7.55
2018-11-29T10:27:13.864Z,7.61
2018-11-29T10:28:13.878Z,7.58
2018-11-29T10:29:13.885Z,7.64
2018-11-29T10:30:13.904Z,7.60
2018-11-29T10:31:13.914Z,7.64
2018-11-29T10:32:13.926Z,7.72
2018-11-29T10:33:13.934Z,7.77
2018-11-29T10:34:13.953Z,7.82
2018-11-29T10:35:13.964Z,7.92
2018-11-29T10:36:13.973Z,8.02
2018-11-29T10:37:13.984Z,8.10
2018-11-29T10:38:13.997Z,8.20
2018-11-29T10:39:14.009Z,8.18
2018-11-29T10:40:14.021Z,8.29
2018-11-29T10:41:14.035Z,8.22
2018-11-29T10:42:14.046Z,8.40
2018-11-29T10:43:14.063Z,8.41
2018-11-29T10:44:14.071Z,8.48
2018-11-29T10:45:14.086Z,8.56
2018-11-29T10:46:15.767Z,8.55
2018-11-29T10:47:14.110Z,8.61
2018-11-29T10:48:14.122Z,8.45
2018-11-29T10:49:14.133Z,8.41
2018-11-29T10:50:14.148Z,8.40
2018-11-29T10:51:14.169Z,8.43
2018-11-29T10:52:14.181Z,8.47
2018-11-29T10:53:14.185Z,8.44
2018-11-29T10:54:16.894Z,8.63
2018-11-29T10:55:14.212Z,8.77
2018-11-29T10:56:14.223Z,9.04
2018-11-29T10:57:14.239Z,9.17
2018-11-29T10:58:14.252Z,9.20
2018-11-29T10:59:14.265Z,9.36
2018-11-29T11:00:14.274Z,9.38
2018-11-29T11:01:14.287Z,9.40
2018-11-29T11:02:14.301Z,9.51
2018-11-29T11:03:14.313Z,9.50
2018-11-29T11:04:14.326Z,9.39
2018-11-29T11:05:14.338Z,9.53
2018-11-29T11:06:14.352Z,9.47
2018-11-29T11:07:14.366Z,9.39
2018-11-29T11:08:14.379Z,9.32
2018-11-29T11:09:14.393Z,9.36
2018-11-29T11:10:14.403Z,9.28
2018-11-29T11:11:14.418Z,9.02
2018-11-29T11:12:18.597Z,8.66
2018-11-29T11:13:14.442Z,8.68
2018-11-29T11:14:14.457Z,8.66
2018-11-29T11:15:14.469Z,8.56
2018-11-29T11:16:14.485Z,8.62
2018-11-29T11:17:14.496Z,8.61
2018-11-29T11:18:14.513Z,8.59
2018-11-29T11:19:14.525Z,8.62
2018-11-29T11:20:14.535Z,8.52
2018-11-29T11:21:14.548Z,8.50
2018-11-29T11:22:14.561Z,8.58
2018-11-29T11:23:14.575Z,8.66
2018-11-29T11:24:14.589Z,8.55
2018-11-29T11:25:14.609Z,8.71
2018-11-29T11:26:14.615Z,8.59
2018-11-29T11:27:14.629Z,8.66
2018-11-29T11:28:14.642Z,8.68
2018-11-29T11:29:14.658Z,8.94
2018-11-29T11:30:14.668Z,8.89
2018-11-29T11:31:14.680Z,8.79
2018-11-29T11:32:14.705Z,8.92
2018-11-29T11:33:14.707Z,8.76
2018-11-29T11:34:14.720Z,8.74
2018-11-29T11:35:14.731Z,8.66
2018-11-29T11:36:14.745Z,8.66
2018-11-29T11:37:14.758Z,8.70
2018-11-29T11:38:14.774Z,8.83
2018-11-29T11:39:14.786Z,8.81
2018-11-29T11:40:14.799Z,8.70
2018-11-29T11:41:14.811Z,8.89
2018-11-29T11:42:14.827Z,8.99
2018-11-29T11:43:14.838Z,9.14
2018-11-29T11:44:14.854Z,9.24
2018-11-29T11:45:14.863Z,9.32
2018-11-29T11:46:14.876Z,9.31
2018-11-29T11:47:14.897Z,9.36
2018-11-29T11:48:14.905Z,9.08
2018-11-29T11:49:14.923Z,9.13
2018-11-29T11:50:14.929Z,9.26
2018-11-29T11:51:14.944Z,9.20
2018-11-29T11:52:14.960Z,9.17
2018-11-29T11:53:14.973Z,9.14
2018-11-29T11:54:14.983Z,9.02
2018-11-29T11:55:18.888Z,9.04
2018-11-29T11:56:15.012Z,9.10
2018-11-29T11:57:15.023Z,9.17
2018-11-29T11:58:15.040Z,9.17
2018-11-29T11:59:15.049Z,9.17
2018-11-29T12:00:15.064Z,9.26
2018-11-29T12:01:15.077Z,9.35
2018-11-29T12:02:15.089Z,9.24
2018-11-29T12:03:15.106Z,9.20
2018-11-29T12:04:15.117Z,9.17
2018-11-29T12:05:15.136Z,9.01
2018-11-29T12:06:15.145Z,9.13
2018-11-29T12:07:15.157Z,9.17
2018-11-29T12:08:15.175Z,9.05
2018-11-29T12:09:15.185Z,8.95
2018-11-29T12:10:15.203Z,9.01
2018-11-29T12:11:15.211Z,9.05
2018-11-29T12:12:15.224Z,8.98
2018-11-29T12:13:15.238Z,8.83
2018-11-29T12:14:15.257Z,8.94
2018-11-29T12:15:15.265Z,8.96
2018-11-29T12:16:15.278Z,8.99
2018-11-29T12:17:15.292Z,8.95
2018-11-29T12:18:15.304Z,9.01
2018-11-29T12:19:15.319Z,8.92
2018-11-29T12:20:15.332Z,8.84
2018-11-29T12:21:15.343Z,8.76
2018-11-29T12:22:15.363Z,8.73
2018-11-29T12:23:15.371Z,8.80
2018-11-29T12:24:15.384Z,8.83
2018-11-29T12:25:15.397Z,8.76
2018-11-29T12:26:15.413Z,8.76
2018-11-29T12:27:15.426Z,8.89
2018-11-29T12:28:15.441Z,8.91
2018-11-29T12:29:15.451Z,8.74
2018-11-29T12:30:15.465Z,8.71
2018-11-29T12:31:15.479Z,8.80
2018-11-29T12:32:15.493Z,8.76
2018-11-29T12:33:15.510Z,8.79
2018-11-29T12:34:15.522Z,8.73
2018-11-29T12:35:15.531Z,8.71
2018-11-29T12:36:15.546Z,8.76
2018-11-29T12:37:15.559Z,8.92
2018-11-29T12:38:15.573Z,8.96
2018-11-29T12:39:15.586Z,8.91
2018-11-29T12:40:15.602Z,9.02
2018-11-29T12:41:15.613Z,9.02
2018-11-29T12:42:15.627Z,8.99
2018-11-29T12:43:15.642Z,8.99
2018-11-29T12:44:15.652Z,8.99
2018-11-29T12:45:15.667Z,9.05
2018-11-29T12:46:15.685Z,8.94
2018-11-29T12:47:15.694Z,8.83
2018-11-29T12:48:15.708Z,8.89
2018-11-29T12:49:15.721Z,8.76
2018-11-29T12:50:15.735Z,8.83
2018-11-29T12:51:15.748Z,8.86
2018-11-29T12:52:15.761Z,8.86
2018-11-29T12:53:15.774Z,8.94
2018-11-29T12:54:15.788Z,8.98
2018-11-29T12:55:15.802Z,9.01
2018-11-29T12:56:15.819Z,8.96
2018-11-29T12:57:15.830Z,8.98
2018-11-29T12:58:15.843Z,8.99
2018-11-29T12:59:15.856Z,8.91
2018-11-29T13:00:15.869Z,8.84
2018-11-29T13:01:15.882Z,8.89
2018-11-29T13:02:15.898Z,8.81
2018-11-29T13:03:15.914Z,8.91
2018-11-29T13:04:15.924Z,8.96
2018-11-29T13:05:15.939Z,9.02
2018-11-29T13:06:15.955Z,8.98
2018-11-29T13:07:15.965Z,9.05
2018-11-29T13:08:15.981Z,9.08
2018-11-29T13:09:15.990Z,8.95
2018-11-29T13:10:16.011Z,8.96
2018-11-29T13:11:16.016Z,9.01
2018-11-29T13:12:16.031Z,9.08
2018-11-29T13:13:16.045Z,8.80
2018-11-29T13:14:16.161Z,8.81
2018-11-29T13:15:16.231Z,8.84
2018-11-29T13:16:16.086Z,8.91
2018-11-29T13:17:16.098Z,8.87
2018-11-29T13:18:16.113Z,8.79